Time;durP1;ratioP1;P1;durP2;ratioP2;P2;SDS_P1;SDS_P2;PMS_P1;PMS_P2;Temp;Humidity;BMP_temperature;BMP_pressure;BME280_temperature;BME280_humidity;BME280_pressure;Samples;Min_cycle;Max_cycle;Signal;HPM_P1;HPM_P2
2022/06/24 00:02:20;;;;;;;6.00;5.35;;;21.70;59.40;;;;;;4957728;28;20030;-78
2022/06/24 00:04:56;;;;;;;7.18;6.32;;;21.70;59.50;;;;;;4968420;28;20085;-78
2022/06/24 00:07:22;;;;;;;6.95;6.25;;;21.70;59.60;;;;;;4946803;28;20035;-77
2022/06/24 00:09:49;;;;;;;7.00;5.53;;;21.70;59.50;;;;;;4948749;28;20039;-79
2022/06/24 00:12:20;;;;;;;6.70;6.10;;;21.70;59.70;;;;;;4969078;28;20038;-79
2022/06/24 00:14:59;;;;;;;7.68;6.80;;;21.70;59.70;;;;;;4969287;28;20027;-79
2022/06/24 00:17:30;;;;;;;7.00;6.28;;;21.60;59.60;;;;;;4961525;28;20027;-79
2022/06/24 00:19:59;;;;;;;7.10;6.40;;;21.60;59.60;;;;;;4947537;28;20065;-79
2022/06/24 00:22:28;;;;;;;8.00;7.10;;;21.60;59.60;;;;;;4950776;28;20033;-79
2022/06/24 00:25:08;;;;;;;7.70;6.80;;;21.60;59.70;;;;;;4975665;28;20050;-79
2022/06/24 00:27:34;;;;;;;7.95;7.13;;;21.50;59.60;;;;;;4964872;28;20557;-79
2022/06/24 00:30:07;;;;;;;8.02;7.22;;;21.50;59.50;;;;;;4967766;28;20035;-79
2022/06/24 00:32:33;;;;;;;;;;;21.50;59.70;;;;;;4966598;28;20333;-79
2022/06/24 00:35:09;;;;;;;7.95;6.68;;;21.50;59.50;;;;;;4951840;28;20101;-79
2022/06/24 00:37:36;;;;;;;10.98;7.22;;;21.50;59.50;;;;;;4967688;28;20359;-78
2022/06/24 00:40:23;;;;;;;7.85;7.05;;;21.40;59.40;;;;;;4964839;28;20058;-78
2022/06/24 00:42:49;;;;;;;7.93;6.60;;;21.40;59.60;;;;;;4947314;28;20393;-79
2022/06/24 00:45:34;;;;;;;7.60;6.82;;;21.40;59.60;;;;;;4933361;28;20051;-78
2022/06/24 00:48:07;;;;;;;8.85;6.93;;;21.40;59.80;;;;;;4955235;28;20066;-79
2022/06/24 00:50:33;;;;;;;7.63;6.75;;;21.30;59.60;;;;;;4966529;28;20037;-78
2022/06/24 00:53:00;;;;;;;7.00;6.40;;;21.20;60.10;;;;;;4964814;28;20145;-78
2022/06/24 00:55:31;;;;;;;7.10;6.40;;;21.20;59.60;;;;;;4962295;28;20031;-78
2022/06/24 00:57:58;;;;;;;8.48;6.35;;;21.20;59.70;;;;;;4964953;28;20049;-76
2022/06/24 01:00:26;;;;;;;7.43;6.63;;;21.20;59.80;;;;;;4967026;28;20031;-79
2022/06/24 01:03:00;;;;;;;8.82;6.50;;;21.20;59.90;;;;;;4953372;28;20428;-80
2022/06/24 01:05:27;;;;;;;8.35;6.03;;;21.20;60.00;;;;;;4981187;28;20038;-78
2022/06/24 01:07:53;;;;;;;6.20;5.60;;;21.20;59.90;;;;;;4966849;28;20569;-79
2022/06/24 01:10:19;;;;;;;7.95;6.68;;;21.20;60.00;;;;;;4950649;28;20486;-78
2022/06/24 01:12:45;;;;;;;7.07;6.38;;;21.10;59.80;;;;;;4966763;28;20037;-78
2022/06/24 01:15:11;;;;;;;6.95;6.25;;;21.20;60.60;;;;;;4958811;28;20187;-77
2022/06/24 01:17:38;;;;;;;8.30;6.40;;;21.10;59.90;;;;;;4967080;28;20513;-78
2022/06/24 01:20:09;;;;;;;7.72;5.78;;;21.20;60.10;;;;;;4959889;28;20197;-78
2022/06/24 01:22:35;;;;;;;7.25;5.82;;;21.10;60.00;;;;;;4970762;28;20038;-78
2022/06/24 01:25:01;;;;;;;7.88;5.93;;;21.10;60.00;;;;;;4946313;28;20049;-76
2022/06/24 01:27:27;;;;;;;9.15;6.97;;;21.10;60.00;;;;;;4966740;28;20039;-78
2022/06/24 01:29:53;;;;;;;6.20;5.60;;;21.10;60.10;;;;;;4948735;28;20038;-77
2022/06/24 01:32:19;;;;;;;7.35;6.65;;;21.00;59.90;;;;;;4947633;28;20671;-78
2022/06/24 01:34:45;;;;;;;7.53;6.13;;;21.10;60.20;;;;;;4949814;28;20429;-78
2022/06/24 01:37:12;;;;;;;7.20;5.97;;;21.00;60.10;;;;;;4965394;28;20027;-78
2022/06/24 01:39:38;;;;;;;7.93;6.55;;;21.00;60.10;;;;;;4956334;28;20841;-78
2022/06/24 01:42:05;;;;;;;7.72;5.85;;;21.00;60.20;;;;;;4966169;28;20492;-78
2022/06/24 01:44:31;;;;;;;7.43;6.55;;;20.90;60.10;;;;;;4941298;28;20042;-78
2022/06/24 01:46:57;;;;;;;7.97;6.43;;;20.90;60.20;;;;;;4967904;28;20170;-79
2022/06/24 01:49:23;;;;;;;9.48;6.55;;;20.90;60.30;;;;;;4951591;28;20137;-80
2022/06/24 01:51:52;;;;;;;6.85;6.13;;;20.90;60.30;;;;;;4950784;28;20034;-79
2022/06/24 01:54:17;;;;;;;7.35;6.53;;;20.80;60.20;;;;;;4962962;28;20027;-80
2022/06/24 01:56:43;;;;;;;9.60;7.38;;;20.80;60.20;;;;;;4964633;28;20072;-79
2022/06/24 01:59:09;;;;;;;8.15;6.60;;;20.80;60.30;;;;;;4935807;28;20034;-79
2022/06/24 02:01:35;;;;;;;9.00;6.82;;;20.80;60.40;;;;;;4969007;28;20282;-78
2022/06/24 02:04:01;;;;;;;8.85;6.85;;;20.80;60.40;;;;;;4951997;28;20517;-79
2022/06/24 02:06:27;;;;;;;9.68;8.57;;;20.80;60.40;;;;;;4950371;28;20046;-78
2022/06/24 02:08:53;;;;;;;8.30;7.13;;;20.80;60.50;;;;;;4970128;28;20035;-78
2022/06/24 02:14:06;;;;;;;9.80;7.57;;;20.80;60.50;;;;;;4964316;28;20030;-78
2022/06/24 02:16:32;;;;;;;7.88;7.07;;;20.70;60.40;;;;;;4969124;28;20023;-79
2022/06/24 02:18:59;;;;;;;9.48;6.60;;;20.70;61.00;;;;;;4965925;28;20046;-77
2022/06/24 02:21:26;;;;;;;7.82;6.60;;;20.70;60.40;;;;;;4982545;28;20034;-78
2022/06/24 02:23:53;;;;;;;9.60;7.30;;;20.70;60.50;;;;;;4949564;28;20053;-78
2022/06/24 02:26:19;;;;;;;7.55;6.07;;;20.80;60.70;;;;;;4966358;28;20042;-78
2022/06/24 02:28:45;;;;;;;8.27;7.47;;;20.70;60.50;;;;;;4983453;28;20026;-77
2022/06/24 02:31:12;;;;;;;7.30;6.60;;;20.70;60.50;;;;;;4981931;28;20034;-78
2022/06/24 02:33:38;;;;;;;8.00;6.63;;;20.70;60.60;;;;;;4961066;28;20050;-77
2022/06/24 02:36:05;;;;;;;7.80;6.90;;;20.70;60.60;;;;;;4968281;28;20074;-78
2022/06/24 02:38:32;;;;;;;6.90;6.30;;;20.70;60.60;;;;;;4968246;28;20033;-78
2022/06/24 02:40:58;;;;;;;7.85;6.55;;;20.70;60.60;;;;;;4948593;28;20496;-78
2022/06/24 02:43:24;;;;;;;8.20;6.80;;;20.70;60.70;;;;;;4960382;28;20031;-78
2022/06/24 02:45:57;;;;;;;7.55;6.68;;;20.70;60.70;;;;;;4935920;28;20519;-78
2022/06/24 02:48:23;;;;;;;7.25;5.80;;;20.70;60.70;;;;;;4969570;28;20022;-78
2022/06/24 02:50:51;;;;;;;7.88;6.15;;;20.60;60.50;;;;;;4955105;28;20066;-78
2022/06/24 02:53:18;;;;;;;7.53;6.80;;;20.60;60.60;;;;;;4950614;28;20039;-78
2022/06/24 02:55:46;;;;;;;7.05;6.35;;;20.60;60.60;;;;;;4957408;28;20329;-78
2022/06/24 02:58:13;;;;;;;7.75;7.05;;;20.60;60.70;;;;;;4966675;28;20086;-78
2022/06/24 03:00:41;;;;;;;8.88;6.68;;;20.60;60.70;;;;;;4968451;28;20659;-79
2022/06/24 03:03:17;;;;;;;8.02;6.43;;;20.60;60.70;;;;;;4944574;28;20054;-78
2022/06/24 03:05:44;;;;;;;7.32;6.68;;;20.60;60.80;;;;;;4955808;28;20031;-79
2022/06/24 03:08:11;;;;;;;8.63;7.65;;;20.60;60.80;;;;;;4964239;28;20081;-78
2022/06/24 03:10:37;;;;;;;9.20;7.13;;;20.50;60.60;;;;;;4929249;28;20528;-79
2022/06/24 03:13:04;;;;;;;6.63;5.95;;;20.60;60.80;;;;;;4967356;28;20043;-79
2022/06/24 03:15:30;;;;;;;6.75;6.18;;;20.50;60.70;;;;;;4967892;28;20301;-78
2022/06/24 03:17:56;;;;;;;6.75;6.18;;;20.50;60.70;;;;;;4966734;28;20054;-79
2022/06/24 03:20:22;;;;;;;10.10;6.63;;;20.50;60.80;;;;;;4962211;28;20035;-79
2022/06/24 03:22:49;;;;;;;6.75;5.82;;;20.50;60.80;;;;;;4967845;28;20121;-80
2022/06/24 03:25:14;;;;;;;7.18;6.53;;;20.50;60.80;;;;;;4968468;28;20061;-80
2022/06/24 03:27:40;;;;;;;7.30;6.60;;;20.50;60.90;;;;;;4971269;28;20027;-80
2022/06/24 03:30:08;;;;;;;6.93;6.28;;;20.50;60.90;;;;;;4956553;28;20125;-79
2022/06/24 03:32:35;;;;;;;8.57;7.20;;;20.50;60.90;;;;;;5007572;28;20159;-80
2022/06/24 03:35:01;;;;;;;7.68;6.05;;;20.50;61.00;;;;;;5005206;28;20023;-79
2022/06/24 03:37:28;;;;;;;8.00;6.13;;;20.50;61.00;;;;;;4993350;28;20019;-79
2022/06/24 03:39:54;;;;;;;7.13;6.53;;;20.40;60.80;;;;;;4978471;28;20486;-79
2022/06/24 03:42:20;;;;;;;8.65;5.95;;;20.40;60.90;;;;;;4967436;28;20053;-80
2022/06/24 03:44:46;;;;;;;7.78;6.97;;;20.40;60.90;;;;;;4952015;28;20195;-80
2022/06/24 03:47:13;;;;;;;7.20;6.47;;;20.40;61.00;;;;;;4952869;28;20540;-80
2022/06/24 03:49:41;;;;;;;7.32;6.63;;;20.40;61.00;;;;;;4983537;28;20505;-80
2022/06/24 03:52:07;;;;;;;6.88;6.00;;;20.40;61.10;;;;;;4971487;28;20043;-80
2022/06/24 03:54:33;;;;;;;6.80;5.95;;;20.30;60.90;;;;;;4963686;28;20031;-80
2022/06/24 03:56:59;;;;;;;6.75;6.13;;;20.30;61.00;;;;;;4957747;28;20477;-80
2022/06/24 03:59:25;;;;;;;7.35;5.95;;;20.30;61.00;;;;;;4971467;28;20038;-79
2022/06/24 04:01:51;;;;;;;8.75;6.70;;;20.30;61.00;;;;;;4971554;28;20564;-80
2022/06/24 04:04:17;;;;;;;8.30;6.93;;;20.30;61.10;;;;;;4954450;28;20099;-78
2022/06/24 04:06:43;;;;;;;7.30;6.60;;;20.30;61.10;;;;;;4971331;28;20128;-78
2022/06/24 04:09:09;;;;;;;7.75;6.60;;;20.30;61.10;;;;;;4970060;28;20066;-77
2022/06/24 04:11:35;;;;;;;7.40;6.70;;;20.20;61.00;;;;;;4967561;28;20043;-78
2022/06/24 04:14:01;;;;;;;6.60;5.85;;;20.20;61.00;;;;;;4969816;28;20031;-78
2022/06/24 04:16:30;;;;;;;8.48;6.53;;;20.20;61.10;;;;;;4964462;28;20095;-79
2022/06/24 04:18:55;;;;;;;6.72;6.07;;;20.20;61.20;;;;;;4976854;28;20058;-79
2022/06/24 04:21:21;;;;;;;7.55;6.78;;;20.20;61.20;;;;;;4964586;28;20509;-78
2022/06/24 04:23:51;;;;;;;9.32;6.68;;;20.20;61.20;;;;;;4968649;28;20050;-79
2022/06/24 04:26:18;;;;;;;8.15;6.72;;;20.20;61.20;;;;;;4960293;28;20545;-78
2022/06/24 04:28:45;;;;;;;7.70;6.95;;;20.20;61.20;;;;;;4971265;28;20069;-78
2022/06/24 04:31:12;;;;;;;7.15;5.82;;;20.20;61.30;;;;;;4970108;28;20019;-77
2022/06/24 04:33:38;;;;;;;7.47;6.55;;;20.20;61.30;;;;;;4971239;28;20165;-79
2022/06/24 04:36:14;;;;;;;7.68;6.85;;;20.10;61.20;;;;;;4970540;28;20094;-78
2022/06/24 04:38:42;;;;;;;7.72;6.30;;;20.20;61.40;;;;;;4953184;28;20491;-79
2022/06/24 04:41:12;;;;;;;7.25;5.88;;;20.20;61.40;;;;;;4963107;28;20647;-80
2022/06/24 04:43:38;;;;;;;7.35;6.60;;;20.20;61.40;;;;;;4969611;28;20081;-79
2022/06/24 04:46:04;;;;;;;7.93;6.47;;;20.20;61.40;;;;;;4963899;28;20242;-79
2022/06/24 04:48:30;;;;;;;7.80;7.10;;;20.20;61.40;;;;;;4947396;28;20472;-79
2022/06/24 04:50:56;;;;;;;6.97;5.90;;;20.20;61.40;;;;;;4949152;28;20053;-79
2022/06/24 04:53:23;;;;;;;8.43;6.90;;;20.20;61.40;;;;;;4963843;28;20023;-80
2022/06/24 04:55:48;;;;;;;5.97;5.47;;;20.20;61.40;;;;;;4943194;28;20019;-79
2022/06/24 04:58:14;;;;;;;6.47;5.80;;;20.20;61.40;;;;;;4964648;28;20407;-79
2022/06/24 05:00:41;;;;;;;13.75;7.05;;;20.20;61.40;;;;;;4966923;28;20451;-79
2022/06/24 05:03:07;;;;;;;6.05;5.45;;;20.20;61.40;;;;;;4921121;28;20042;-76
2022/06/24 05:05:33;;;;;;;6.13;5.53;;;20.20;61.50;;;;;;4963594;28;20398;-79
2022/06/24 05:07:59;;;;;;;5.82;5.28;;;20.20;61.40;;;;;;4949247;28;20037;-79
2022/06/24 05:10:24;;;;;;;6.60;6.03;;;20.20;61.50;;;;;;4962316;28;20599;-79
2022/06/24 05:12:51;;;;;;;6.65;5.15;;;20.20;61.50;;;;;;4964421;28;20034;-79
2022/06/24 05:15:16;;;;;;;6.15;5.07;;;20.20;61.50;;;;;;4963580;28;20374;-78
2022/06/24 05:17:42;;;;;;;5.82;5.07;;;20.20;61.50;;;;;;4960374;28;20027;-79
2022/06/24 05:20:08;;;;;;;6.57;5.43;;;20.20;61.40;;;;;;4964916;28;20031;-79
2022/06/24 05:22:34;;;;;;;6.05;5.53;;;20.20;61.40;;;;;;4960403;28;20035;-80
2022/06/24 05:25:01;;;;;;;6.30;5.70;;;20.20;61.40;;;;;;4951958;28;20074;-80
2022/06/24 05:27:27;;;;;;;6.88;4.50;;;20.20;61.40;;;;;;4965635;28;20065;-80
2022/06/24 05:29:53;;;;;;;5.97;5.38;;;20.30;61.60;;;;;;4958795;28;20089;-78
2022/06/24 05:32:19;;;;;;;5.68;4.63;;;20.30;61.50;;;;;;4960493;28;20023;-79
2022/06/24 05:34:45;;;;;;;6.13;5.53;;;20.30;61.50;;;;;;4964163;28;20039;-77
2022/06/24 05:37:13;;;;;;;5.88;4.50;;;20.40;61.70;;;;;;4952827;28;20029;-80
2022/06/24 05:39:38;;;;;;;7.80;5.63;;;20.40;61.70;;;;;;4961821;28;20101;-81
2022/06/24 05:42:04;;;;;;;5.75;4.55;;;20.40;61.50;;;;;;4980253;28;20093;-80
2022/06/24 05:44:30;;;;;;;4.90;4.50;;;20.50;61.60;;;;;;4976132;28;20050;-78
2022/06/24 05:46:56;;;;;;;6.00;4.80;;;20.60;61.60;;;;;;4968814;28;20027;-79
2022/06/24 05:49:22;;;;;;;7.95;5.47;;;20.60;61.60;;;;;;4947958;28;20070;-80
2022/06/24 05:51:48;;;;;;;6.25;5.55;;;20.60;61.50;;;;;;4963522;28;20046;-78
2022/06/24 05:56:58;;;;;;;5.95;5.45;;;20.60;61.40;;;;;;4964132;28;20031;-75
2022/06/24 05:59:24;;;;;;;7.80;6.88;;;20.60;61.40;;;;;;4966029;28;20041;-75
2022/06/24 06:01:49;;;;;;;12.38;8.45;;;20.60;62.00;;;;;;4958986;28;20033;-75
2022/06/24 06:04:15;;;;;;;9.07;8.20;;;20.70;63.50;;;;;;4960677;28;20127;-76
2022/06/24 06:06:41;;;;;;;10.30;9.27;;;20.70;64.40;;;;;;4961940;28;20117;-75
2022/06/24 06:09:08;;;;;;;10.07;8.93;;;20.70;65.30;;;;;;4957734;28;20109;-76
2022/06/24 06:11:33;;;;;;;8.95;8.15;;;20.80;66.20;;;;;;4956992;28;20042;-76
2022/06/24 06:13:59;;;;;;;10.88;8.48;;;20.80;66.70;;;;;;4956173;28;20011;-75
2022/06/24 06:16:26;;;;;;;10.75;8.73;;;20.90;67.30;;;;;;4965171;28;20093;-75
2022/06/24 06:18:52;;;;;;;9.95;8.80;;;20.90;67.70;;;;;;4953250;28;20031;-76
2022/06/24 06:21:18;;;;;;;9.93;9.02;;;20.90;68.00;;;;;;4961872;28;20030;-75
2022/06/24 06:23:46;;;;;;;11.20;9.10;;;21.00;68.30;;;;;;4973465;28;20074;-76
2022/06/24 06:26:12;;;;;;;9.77;8.88;;;21.00;68.50;;;;;;4959163;28;20513;-75
2022/06/24 06:28:40;;;;;;;10.20;9.27;;;21.00;68.60;;;;;;4943227;28;20128;-78
2022/06/24 06:31:08;;;;;;;15.05;10.63;;;21.10;68.90;;;;;;4927175;28;20102;-75
2022/06/24 06:33:34;;;;;;;9.40;8.43;;;21.10;69.00;;;;;;4937837;29;20035;-75
2022/06/24 06:36:04;;;;;;;9.45;8.55;;;21.20;69.10;;;;;;4963667;28;20093;-75
2022/06/24 06:38:31;;;;;;;11.68;8.27;;;21.20;69.10;;;;;;4959092;28;20027;-75
2022/06/24 06:40:56;;;;;;;8.98;8.13;;;21.20;68.70;;;;;;4959687;28;20675;-77
2022/06/24 06:43:22;;;;;;;10.30;7.90;;;21.30;68.50;;;;;;4959026;28;20086;-74
2022/06/24 06:45:48;;;;;;;8.18;7.40;;;21.30;68.30;;;;;;4963341;28;20317;-74
2022/06/24 06:48:14;;;;;;;8.15;7.32;;;21.40;68.20;;;;;;4964210;28;20075;-75
2022/06/24 06:50:40;;;;;;;8.38;7.50;;;21.40;67.90;;;;;;4961023;28;20037;-74
2022/06/24 06:53:06;;;;;;;11.40;7.78;;;21.40;67.60;;;;;;4964365;28;20031;-74
2022/06/24 06:55:31;;;;;;;7.80;6.45;;;21.40;67.40;;;;;;4954057;28;20097;-74
2022/06/24 06:57:57;;;;;;;6.72;6.03;;;21.40;67.10;;;;;;4964105;28;20039;-74
2022/06/24 07:00:23;;;;;;;6.20;5.60;;;21.40;67.00;;;;;;4955227;28;20034;-73
2022/06/24 07:02:49;;;;;;;6.88;5.72;;;21.40;66.80;;;;;;4947239;28;20030;-74
2022/06/24 07:05:15;;;;;;;5.93;5.30;;;21.30;66.50;;;;;;4936456;28;20541;-74
2022/06/24 07:07:41;;;;;;;6.15;5.28;;;21.40;66.60;;;;;;4957160;28;20023;-74
2022/06/24 07:10:07;;;;;;;5.75;5.00;;;21.30;66.20;;;;;;4954978;28;20031;-74
2022/06/24 07:12:32;;;;;;;5.22;4.72;;;21.30;66.10;;;;;;4959520;28;20209;-74
2022/06/24 07:14:58;;;;;;;7.97;4.45;;;21.30;66.00;;;;;;4965846;28;20033;-74
2022/06/24 07:17:24;;;;;;;4.78;4.38;;;21.30;65.90;;;;;;4946354;28;20042;-74
2022/06/24 07:19:50;;;;;;;5.30;4.70;;;21.30;65.80;;;;;;4954950;28;20492;-75
2022/06/24 07:22:16;;;;;;;4.88;4.30;;;21.20;65.50;;;;;;4964947;28;20039;-75
2022/06/24 07:24:44;;;;;;;5.65;4.32;;;21.20;65.50;;;;;;4962546;28;20097;-74
2022/06/24 07:27:10;;;;;;;8.48;4.57;;;21.20;65.40;;;;;;4967130;28;20034;-75
2022/06/24 07:29:37;;;;;;;6.25;4.43;;;21.20;65.40;;;;;;4938336;28;20026;-75
2022/06/24 07:32:05;;;;;;;4.88;4.35;;;21.20;65.30;;;;;;4967767;28;20044;-74
2022/06/24 07:34:32;;;;;;;4.70;4.28;;;21.10;65.00;;;;;;4967478;28;20065;-74
2022/06/24 07:37:01;;;;;;;4.80;4.40;;;21.10;65.00;;;;;;4961387;28;20050;-74
2022/06/24 07:39:28;;;;;;;4.40;4.10;;;21.10;64.90;;;;;;4965275;28;20115;-74
2022/06/24 07:41:55;;;;;;;4.75;4.28;;;21.10;64.80;;;;;;4966346;28;20110;-74
2022/06/24 07:44:22;;;;;;;5.18;3.60;;;21.10;64.70;;;;;;4949153;28;20298;-74
2022/06/24 07:46:49;;;;;;;5.18;4.05;;;21.20;64.70;;;;;;4949898;28;20274;-73
2022/06/24 07:49:15;;;;;;;5.35;4.15;;;21.20;64.60;;;;;;4965135;28;20315;-74
2022/06/24 07:51:41;;;;;;;5.07;3.85;;;21.10;64.30;;;;;;4977207;28;20026;-74
2022/06/24 07:54:10;;;;;;;4.18;3.78;;;21.20;64.40;;;;;;4964499;28;20035;-74
2022/06/24 07:56:57;;;;;;;4.93;4.13;;;21.20;64.30;;;;;;4958478;28;20023;-74
2022/06/24 07:59:35;;;;;;;7.43;4.63;;;21.20;64.20;;;;;;4947666;28;20028;-74
2022/06/24 08:02:06;;;;;;;3.95;3.65;;;21.30;64.10;;;;;;4966656;28;20033;-74
2022/06/24 08:04:32;;;;;;;4.32;3.92;;;21.40;64.10;;;;;;4968043;28;20436;-75
2022/06/24 08:06:58;;;;;;;5.22;4.72;;;21.50;64.10;;;;;;4964890;28;20039;-74
2022/06/24 08:09:27;;;;;;;4.53;4.13;;;21.50;63.80;;;;;;4964971;28;20038;-74
2022/06/24 08:11:54;;;;;;;5.07;4.55;;;21.60;63.70;;;;;;4948657;28;20383;-75
2022/06/24 08:14:21;;;;;;;8.23;5.20;;;21.70;63.50;;;;;;4965621;28;20023;-74
2022/06/24 08:16:47;;;;;;;4.72;4.25;;;21.90;63.60;;;;;;4967131;28;20035;-74
2022/06/24 08:19:14;;;;;;;5.15;4.30;;;22.00;63.50;;;;;;4965851;28;20700;-74
2022/06/24 08:21:40;;;;;;;4.60;3.80;;;22.20;63.40;;;;;;4963338;28;20027;-73
2022/06/24 08:24:06;;;;;;;6.30;4.60;;;22.30;63.20;;;;;;4959578;28;20282;-74
2022/06/24 08:26:33;;;;;;;5.25;4.50;;;22.40;63.00;;;;;;4967784;28;20035;-74
2022/06/24 08:28:59;;;;;;;7.78;4.35;;;22.50;62.90;;;;;;4965498;28;20027;-74
2022/06/24 08:31:25;;;;;;;4.88;4.38;;;22.60;62.90;;;;;;4966374;28;20097;-74
2022/06/24 08:33:51;;;;;;;7.25;3.90;;;22.70;62.80;;;;;;4963773;28;20544;-74
2022/06/24 08:36:17;;;;;;;4.57;4.10;;;22.80;62.80;;;;;;4943466;28;20030;-74
2022/06/24 08:38:43;;;;;;;5.60;4.32;;;22.80;62.60;;;;;;4966157;28;20130;-74
2022/06/24 08:41:10;;;;;;;5.03;4.00;;;22.90;62.60;;;;;;4963200;28;20101;-74
2022/06/24 08:43:36;;;;;;;5.18;4.03;;;23.00;62.50;;;;;;4966509;28;20037;-74
2022/06/24 08:46:03;;;;;;;5.38;4.28;;;23.00;62.30;;;;;;4960128;28;20175;-74
2022/06/24 08:48:33;;;;;;;5.75;4.53;;;23.00;62.20;;;;;;4964091;28;20031;-73
2022/06/24 08:51:00;;;;;;;6.05;4.70;;;23.10;62.30;;;;;;4950047;28;20046;-73
2022/06/24 08:53:29;;;;;;;9.90;5.80;;;23.00;62.10;;;;;;4967434;28;20053;-74
2022/06/24 08:55:55;;;;;;;7.10;5.05;;;23.10;62.10;;;;;;4956055;28;20023;-76
2022/06/24 08:58:21;;;;;;;7.20;5.10;;;23.10;62.00;;;;;;4966848;28;20179;-74
2022/06/24 09:00:47;;;;;;;10.00;5.60;;;23.10;61.90;;;;;;4964044;28;20086;-75
2022/06/24 09:03:13;;;;;;;9.60;4.82;;;23.10;61.80;;;;;;4974836;28;20031;-75
2022/06/24 09:05:40;;;;;;;9.52;5.60;;;23.10;61.70;;;;;;4976509;28;20042;-74
2022/06/24 09:08:14;;;;;;;5.78;5.18;;;23.10;61.70;;;;;;4976932;28;20031;-77
2022/06/24 09:11:06;;;;;;;7.82;6.10;;;23.10;61.60;;;;;;4947653;28;20031;-75
2022/06/24 09:13:49;;;;;;;8.45;5.95;;;23.10;61.50;;;;;;4969704;28;20034;-75
2022/06/24 09:16:18;;;;;;;6.78;5.93;;;23.10;61.40;;;;;;4968629;28;20034;-75
2022/06/24 09:18:59;;;;;;;8.57;5.80;;;23.10;61.30;;;;;;4946127;28;20027;-75
2022/06/24 09:21:30;;;;;;;6.53;5.82;;;23.10;61.20;;;;;;4979056;28;20086;-75
2022/06/24 09:23:59;;;;;;;7.35;6.00;;;23.10;61.10;;;;;;4959953;28;20058;-75
2022/06/24 09:26:37;;;;;;;7.78;5.82;;;23.10;61.00;;;;;;4964401;28;20047;-75
2022/06/24 09:29:05;;;;;;;9.00;5.43;;;23.20;61.10;;;;;;4965523;28;20101;-75
2022/06/24 09:31:32;;;;;;;8.20;7.05;;;23.20;61.60;;;;;;4965980;28;20030;-75
2022/06/24 09:34:18;;;;;;;8.75;6.53;;;23.10;60.80;;;;;;4966355;28;20823;-75
2022/06/24 09:36:47;;;;;;;10.35;7.65;;;23.10;60.70;;;;;;4965502;28;20053;-75
2022/06/24 09:39:14;;;;;;;10.23;7.63;;;23.10;60.80;;;;;;4964832;28;20026;-75
2022/06/24 09:41:53;;;;;;;9.50;6.65;;;23.10;60.70;;;;;;4953908;28;20038;-74
2022/06/24 09:44:19;;;;;;;8.20;6.85;;;23.10;60.60;;;;;;4964730;28;20100;-76
2022/06/24 09:46:46;;;;;;;8.02;6.45;;;23.10;60.60;;;;;;4965463;28;20353;-75
2022/06/24 09:49:14;;;;;;;9.45;6.20;;;23.20;60.60;;;;;;4962302;28;20401;-75
2022/06/24 09:51:41;;;;;;;8.63;7.03;;;23.20;60.60;;;;;;4942854;28;20446;-76
2022/06/24 09:54:09;;;;;;;11.32;7.88;;;23.30;60.60;;;;;;4959020;28;20026;-75
2022/06/24 09:56:37;;;;;;;20.25;8.68;;;23.30;60.40;;;;;;4956621;28;20031;-75
2022/06/24 10:01:48;;;;;;;12.02;7.28;;;23.50;60.30;;;;;;4962432;28;20062;-75
2022/06/24 10:04:17;;;;;;;7.13;6.18;;;23.50;60.20;;;;;;4965734;28;20525;-75
2022/06/24 10:06:45;;;;;;;6.80;5.88;;;23.50;60.20;;;;;;4965876;28;20051;-75
2022/06/24 10:09:12;;;;;;;9.48;7.15;;;23.50;60.20;;;;;;4964271;28;20035;-74
2022/06/24 10:11:41;;;;;;;19.27;7.07;;;23.50;60.20;;;;;;4964823;28;20023;-76
2022/06/24 10:14:08;;;;;;;12.90;6.60;;;23.40;60.00;;;;;;4971923;28;20490;-75
2022/06/24 10:16:36;;;;;;;8.88;6.85;;;23.40;60.10;;;;;;4944628;28;20496;-74
2022/06/24 10:19:03;;;;;;;9.15;6.13;;;23.40;60.10;;;;;;4963133;28;20054;-75
2022/06/24 10:21:30;;;;;;;11.73;6.68;;;23.30;60.00;;;;;;4960117;28;20054;-75
2022/06/24 10:23:56;;;;;;;8.35;7.10;;;23.30;60.10;;;;;;4928187;28;20035;-74
2022/06/24 10:26:26;;;;;;;11.05;6.53;;;23.30;60.00;;;;;;4965788;28;20096;-75
2022/06/24 10:29:03;;;;;;;9.88;6.65;;;23.40;60.10;;;;;;4947789;28;20061;-74
2022/06/24 10:31:52;;;;;;;10.15;6.72;;;23.40;60.10;;;;;;4946181;28;20433;-74
2022/06/24 10:34:25;;;;;;;9.60;5.90;;;23.40;60.00;;;;;;4962596;28;20046;-75
2022/06/24 10:37:02;;;;;;;8.50;6.18;;;23.30;59.80;;;;;;4963069;28;20031;-74
2022/06/24 10:39:31;;;;;;;6.85;6.20;;;23.30;59.90;;;;;;4966593;28;20043;-74
2022/06/24 10:42:05;;;;;;;9.45;6.35;;;23.20;59.90;;;;;;4954466;28;20026;-74
2022/06/24 10:44:36;;;;;;;10.10;5.90;;;23.20;60.00;;;;;;4980179;28;20039;-74
2022/06/24 10:47:05;;;;;;;8.38;6.45;;;23.10;60.00;;;;;;4963384;28;20038;-74
2022/06/24 10:49:54;;;;;;;6.97;5.95;;;23.10;60.10;;;;;;4964897;28;20566;-74
2022/06/24 10:52:35;;;;;;;7.18;5.40;;;23.10;60.10;;;;;;4958942;28;20074;-74
2022/06/24 10:55:17;;;;;;;8.82;5.45;;;23.20;60.10;;;;;;4955973;28;20393;-74
2022/06/24 10:57:51;;;;;;;6.13;5.53;;;23.30;60.10;;;;;;4967651;28;20026;-74
2022/06/24 11:00:39;;;;;;;6.25;5.63;;;23.40;60.20;;;;;;4965346;28;20589;-74
2022/06/24 11:03:05;;;;;;;6.35;5.60;;;23.50;60.10;;;;;;4963169;28;20129;-74
2022/06/24 11:05:32;;;;;;;5.88;5.28;;;23.80;60.10;;;;;;4968636;28;20133;-74
2022/06/24 11:07:59;;;;;;;5.95;4.85;;;24.00;60.00;;;;;;4973268;28;20042;-74
2022/06/24 11:10:30;;;;;;;5.30;4.80;;;24.20;60.00;;;;;;4933022;28;20106;-74
2022/06/24 11:12:58;;;;;;;5.82;5.22;;;24.50;59.90;;;;;;4963036;28;20039;-75
2022/06/24 11:15:43;;;;;;;4.78;4.28;;;24.70;59.70;;;;;;4957070;28;20019;-74
2022/06/24 11:18:13;;;;;;;5.68;4.50;;;24.80;59.50;;;;;;4959347;28;20041;-75
2022/06/24 11:20:47;;;;;;;7.35;4.90;;;24.80;59.50;;;;;;4967910;28;20023;-75
2022/06/24 11:23:18;;;;;;;4.47;4.00;;;24.70;59.40;;;;;;4968355;28;20031;-77
2022/06/24 11:25:46;;;;;;;5.03;4.53;;;24.60;59.40;;;;;;4960754;28;20074;-75
2022/06/24 11:28:23;;;;;;;5.20;4.70;;;24.40;59.40;;;;;;4951885;28;20030;-74
2022/06/24 11:30:51;;;;;;;5.97;4.43;;;24.30;59.70;;;;;;4966220;28;20051;-75
2022/06/24 11:33:18;;;;;;;6.95;4.78;;;24.10;59.70;;;;;;4948053;28;20385;-74
2022/06/24 11:35:46;;;;;;;5.38;4.85;;;24.10;59.90;;;;;;4962461;28;20114;-74
2022/06/24 11:38:12;;;;;;;5.90;4.57;;;23.90;59.70;;;;;;4964081;28;20054;-74
2022/06/24 11:40:40;;;;;;;5.35;4.82;;;23.80;59.80;;;;;;4964709;28;20058;-76
2022/06/24 11:43:09;;;;;;;5.03;4.63;;;23.80;59.90;;;;;;4942571;28;20086;-75
2022/06/24 11:45:38;;;;;;;4.80;4.35;;;23.80;59.90;;;;;;4967455;28;20661;-73
2022/06/24 11:48:06;;;;;;;5.22;4.72;;;23.70;59.80;;;;;;4968421;28;20461;-76
2022/06/24 11:50:35;;;;;;;4.53;4.13;;;23.80;59.90;;;;;;4960528;28;20320;-75
2022/06/24 11:53:02;;;;;;;5.30;4.80;;;23.90;59.90;;;;;;4966644;28;20031;-74
2022/06/24 11:55:39;;;;;;;4.78;4.18;;;24.10;60.00;;;;;;4956171;28;20545;-75
2022/06/24 11:58:08;;;;;;;5.10;4.60;;;24.10;59.60;;;;;;4957289;28;20089;-75
2022/06/24 12:00:36;;;;;;;5.38;4.40;;;24.30;59.70;;;;;;4963909;28;20034;-75
2022/06/24 12:03:05;;;;;;;8.45;4.50;;;24.40;59.60;;;;;;4966228;28;20041;-75
2022/06/24 12:05:33;;;;;;;5.30;4.80;;;24.50;59.50;;;;;;4959201;28;20031;-76
2022/06/24 12:08:00;;;;;;;4.85;4.40;;;24.70;59.50;;;;;;4944320;28;20154;-75
2022/06/24 12:10:26;;;;;;;5.85;4.30;;;24.80;59.40;;;;;;4965792;28;20039;-76
2022/06/24 12:12:56;;;;;;;5.35;3.97;;;25.00;59.40;;;;;;4965996;28;20107;-77
2022/06/24 12:15:31;;;;;;;5.45;3.72;;;25.20;59.00;;;;;;4955825;28;20114;-77
2022/06/24 12:17:58;;;;;;;4.25;3.95;;;25.60;58.60;;;;;;4961075;28;20122;-76
2022/06/24 12:20:28;;;;;;;4.45;3.53;;;26.00;58.00;;;;;;4966210;28;20031;-76
2022/06/24 12:23:17;;;;;;;4.50;4.10;;;26.30;58.00;;;;;;4963818;28;20278;-76
2022/06/24 12:25:44;;;;;;;5.20;3.63;;;26.70;56.70;;;;;;4961824;28;20536;-74
2022/06/24 12:28:25;;;;;;;3.63;3.33;;;26.90;56.30;;;;;;4961304;28;20155;-76
2022/06/24 12:31:06;;;;;;;4.25;3.20;;;27.30;55.70;;;;;;4942299;28;20070;-76
2022/06/24 12:33:48;;;;;;;3.75;2.90;;;27.60;55.20;;;;;;4963057;28;20031;-76
2022/06/24 12:36:18;;;;;;;4.40;3.00;;;28.00;54.80;;;;;;4947625;28;20035;-76
2022/06/24 12:38:53;;;;;;;3.58;3.10;;;28.80;54.10;;;;;;4947438;28;20663;-76
2022/06/24 12:41:21;;;;;;;2.88;2.67;;;29.70;52.80;;;;;;4964230;28;20031;-76
2022/06/24 12:44:01;;;;;;;5.15;3.20;;;30.40;51.60;;;;;;4964756;28;20494;-72
2022/06/24 12:46:37;;;;;;;4.45;3.35;;;31.10;50.30;;;;;;4957355;28;20395;-74
2022/06/24 12:51:59;;;;;;;4.05;3.03;;;31.90;48.70;;;;;;4963881;28;20085;-76
2022/06/24 12:54:25;;;;;;;3.08;2.78;;;31.80;48.60;;;;;;4974915;28;20033;-75
2022/06/24 12:56:51;;;;;;;3.50;3.17;;;31.60;48.50;;;;;;4962782;28;20481;-76
2022/06/24 12:59:17;;;;;;;3.78;3.08;;;31.30;48.60;;;;;;4948277;28;20035;-76
2022/06/24 13:01:46;;;;;;;5.75;3.30;;;31.10;48.80;;;;;;4970509;28;20039;-76
2022/06/24 13:04:13;;;;;;;3.95;2.80;;;30.90;48.90;;;;;;4964131;28;20558;-75